createdAt,value
2022-09-21T00:02:26.706Z,3.20
2022-09-21T00:04:54.347Z,3.30
2022-09-21T00:07:23.066Z,3.20
2022-09-21T00:09:50.446Z,3.40
2022-09-21T00:12:18.115Z,3.20
2022-09-21T00:14:45.619Z,3.60
2022-09-21T00:17:13.496Z,3.50
2022-09-21T00:19:41.400Z,2.87
2022-09-21T00:22:08.774Z,3.17
2022-09-21T00:24:37.541Z,2.80
2022-09-21T00:27:04.998Z,2.83
2022-09-21T00:29:32.412Z,3.20
2022-09-21T00:31:59.837Z,3.10
2022-09-21T00:34:27.339Z,3.13
2022-09-21T00:36:54.764Z,3.03
2022-09-21T00:39:22.410Z,2.93
2022-09-21T00:41:53.633Z,2.70
2022-09-21T00:44:25.658Z,2.87
2022-09-21T00:46:53.896Z,3.07
2022-09-21T00:49:21.794Z,3.10
2022-09-21T00:51:50.054Z,3.30
2022-09-21T00:54:20.036Z,3.00
2022-09-21T00:56:47.432Z,3.00
2022-09-21T00:59:21.396Z,2.87
2022-09-21T01:01:49.176Z,2.53
2022-09-21T01:04:18.889Z,2.60
2022-09-21T01:06:47.807Z,2.90
2022-09-21T01:09:15.803Z,2.90
2022-09-21T01:11:48.715Z,2.80
2022-09-21T01:14:27.640Z,3.30
2022-09-21T01:17:02.400Z,3.00
2022-09-21T01:19:57.214Z,2.73
2022-09-21T01:22:28.170Z,2.60
2022-09-21T01:25:03.823Z,2.50
2022-09-21T01:27:52.487Z,3.10
2022-09-21T01:30:22.276Z,3.10
2022-09-21T01:32:53.005Z,3.00
2022-09-21T01:35:22.830Z,2.97
2022-09-21T01:37:53.099Z,2.90
2022-09-21T01:40:23.830Z,2.77
2022-09-21T01:42:52.505Z,3.27
2022-09-21T01:45:24.168Z,2.80
2022-09-21T01:47:52.475Z,3.50
2022-09-21T01:50:20.882Z,3.03
2022-09-21T01:52:50.184Z,3.00
2022-09-21T01:55:19.735Z,3.07
2022-09-21T01:57:50.925Z,2.87
2022-09-21T02:00:18.464Z,3.07
2022-09-21T02:02:50.365Z,2.90
2022-09-21T02:05:19.487Z,3.00
2022-09-21T02:07:47.515Z,2.60
2022-09-21T02:10:18.393Z,2.80
2022-09-21T02:12:46.031Z,2.63
2022-09-21T02:15:13.540Z,2.60
2022-09-21T02:17:49.003Z,2.83
2022-09-21T02:20:20.781Z,3.00
2022-09-21T02:22:55.938Z,2.57
2022-09-21T02:25:30.346Z,2.80
2022-09-21T02:27:59.792Z,3.20
2022-09-21T02:30:28.215Z,3.17
2022-09-21T02:33:00.112Z,3.20
2022-09-21T02:35:32.669Z,2.80
2022-09-21T02:38:06.050Z,3.07
2022-09-21T02:40:36.331Z,2.83
2022-09-21T02:43:07.046Z,3.10
2022-09-21T02:45:36.292Z,3.33
2022-09-21T02:48:06.333Z,3.60
2022-09-21T02:50:37.346Z,4.07
2022-09-21T02:53:06.470Z,3.50
2022-09-21T02:55:34.200Z,3.40
2022-09-21T02:58:04.070Z,2.83
2022-09-21T03:00:31.749Z,3.77
2022-09-21T03:02:59.195Z,3.27
2022-09-21T03:05:26.828Z,3.50
2022-09-21T03:07:55.874Z,3.13
2022-09-21T03:10:23.298Z,3.20
2022-09-21T03:12:50.726Z,3.20
2022-09-21T03:15:18.166Z,3.37
2022-09-21T03:17:45.555Z,3.13
2022-09-21T03:20:12.933Z,2.97
2022-09-21T03:22:40.323Z,3.43
2022-09-21T03:25:12.260Z,3.43
2022-09-21T03:27:41.224Z,3.10
2022-09-21T03:30:08.929Z,2.97
2022-09-21T03:32:36.327Z,3.20
2022-09-21T03:35:04.840Z,3.30
2022-09-21T03:37:32.188Z,3.13
2022-09-21T03:40:00.257Z,3.00
2022-09-21T03:42:29.137Z,3.70
2022-09-21T03:44:56.574Z,3.27
2022-09-21T03:47:23.999Z,3.20
2022-09-21T03:49:51.391Z,3.50
2022-09-21T03:52:18.780Z,3.10
2022-09-21T03:54:46.705Z,3.53
2022-09-21T03:57:14.092Z,3.57
2022-09-21T03:59:43.029Z,3.77
2022-09-21T04:02:10.554Z,3.90
2022-09-21T04:04:37.911Z,3.70
2022-09-21T04:07:05.447Z,3.90
2022-09-21T04:09:32.933Z,3.50
2022-09-21T04:12:00.369Z,3.43
2022-09-21T04:14:27.763Z,3.43
2022-09-21T04:16:56.628Z,3.60
2022-09-21T04:19:24.035Z,3.60
2022-09-21T04:21:52.841Z,3.53
2022-09-21T04:24:20.271Z,3.83
2022-09-21T04:26:47.753Z,3.80
2022-09-21T04:29:15.655Z,3.67
2022-09-21T04:31:43.059Z,3.87
2022-09-21T04:34:13.760Z,3.60
2022-09-21T04:36:41.226Z,3.50
2022-09-21T04:39:08.763Z,3.40
2022-09-21T04:41:36.127Z,3.70
2022-09-21T04:44:03.531Z,3.40
2022-09-21T04:46:31.078Z,3.43
2022-09-21T04:48:58.519Z,3.07
2022-09-21T04:51:27.337Z,3.50
2022-09-21T04:53:54.966Z,3.43
2022-09-21T04:56:22.619Z,3.43
2022-09-21T04:58:50.054Z,3.50
2022-09-21T05:01:17.499Z,3.50
2022-09-21T05:03:45.063Z,3.70
2022-09-21T05:06:13.464Z,3.50
2022-09-21T05:08:59.768Z,3.67
2022-09-21T05:11:27.392Z,3.63
2022-09-21T05:13:54.848Z,3.63
2022-09-21T05:16:22.263Z,4.77
2022-09-21T05:18:49.754Z,6.63
2022-09-21T05:21:17.161Z,6.80
2022-09-21T05:23:45.932Z,7.60
2022-09-21T05:26:13.332Z,7.10
2022-09-21T05:28:40.960Z,8.73
2022-09-21T05:31:17.968Z,6.47
2022-09-21T05:33:49.012Z,4.73
2022-09-21T05:36:26.522Z,5.00
2022-09-21T05:38:56.722Z,4.57
2022-09-21T05:41:24.401Z,4.87
2022-09-21T05:43:52.137Z,5.00
2022-09-21T05:46:20.780Z,5.07
2022-09-21T05:48:53.190Z,5.03
2022-09-21T05:51:26.460Z,3.73
2022-09-21T05:53:58.602Z,3.80
2022-09-21T05:56:32.588Z,3.63
2022-09-21T05:59:04.604Z,5.17
2022-09-21T06:01:38.655Z,4.60
2022-09-21T06:04:10.638Z,3.97
2022-09-21T06:06:38.063Z,4.90
2022-09-21T06:09:07.136Z,7.90
2022-09-21T06:11:34.717Z,6.67
2022-09-21T06:14:02.695Z,5.83
2022-09-21T06:16:37.431Z,5.00
2022-09-21T06:19:04.847Z,4.70
2022-09-21T06:21:32.225Z,4.47
2022-09-21T06:23:59.736Z,4.20
2022-09-21T06:26:29.727Z,4.17
2022-09-21T06:28:57.195Z,4.03
2022-09-21T06:31:24.762Z,4.07
2022-09-21T06:33:52.176Z,3.47
2022-09-21T06:36:19.658Z,4.00
2022-09-21T06:38:47.095Z,3.50
2022-09-21T06:41:20.130Z,3.50
2022-09-21T06:43:49.953Z,3.60
2022-09-21T06:46:17.418Z,3.57
2022-09-21T06:48:44.843Z,3.73
2022-09-21T06:51:12.252Z,4.10
2022-09-21T06:53:39.598Z,4.63
2022-09-21T06:56:07.728Z,4.90
2022-09-21T06:58:35.437Z,6.00
2022-09-21T07:01:08.396Z,5.50
2022-09-21T07:03:35.963Z,4.30
2022-09-21T07:06:03.375Z,4.40
2022-09-21T07:11:18.229Z,4.30
2022-09-21T07:13:45.659Z,5.00
2022-09-21T07:16:14.425Z,5.10
2022-09-21T07:18:43.815Z,5.27
2022-09-21T07:21:12.108Z,5.33
2022-09-21T07:23:39.826Z,5.87
2022-09-21T07:26:08.498Z,5.83
2022-09-21T07:28:36.376Z,6.03
2022-09-21T07:31:07.035Z,5.73
2022-09-21T07:33:36.330Z,5.77
2022-09-21T07:36:10.014Z,5.20
2022-09-21T07:38:38.437Z,5.90
2022-09-21T07:41:05.976Z,5.60
2022-09-21T07:43:33.609Z,5.43
2022-09-21T07:46:02.131Z,5.80
2022-09-21T07:48:30.302Z,4.60
2022-09-21T07:51:06.110Z,4.87
2022-09-21T07:53:33.838Z,4.50
2022-09-21T07:56:04.712Z,4.87
2022-09-21T07:58:49.601Z,4.30
2022-09-21T08:01:17.405Z,4.27
2022-09-21T08:03:44.917Z,4.47
2022-09-21T08:06:14.055Z,4.80
2022-09-21T08:08:41.856Z,4.27
2022-09-21T08:11:11.807Z,4.40
2022-09-21T08:13:39.171Z,4.60
2022-09-21T08:16:07.218Z,5.07
2022-09-21T08:18:37.626Z,4.70
2022-09-21T08:21:05.379Z,5.50
2022-09-21T08:23:34.124Z,5.27
2022-09-21T08:26:02.076Z,5.30
2022-09-21T08:28:30.275Z,5.37
2022-09-21T08:31:00.144Z,7.60
2022-09-21T08:33:29.702Z,4.30
2022-09-21T08:35:58.922Z,5.70
2022-09-21T08:38:26.346Z,6.00
2022-09-21T08:40:55.228Z,5.60
2022-09-21T08:43:29.074Z,4.40
2022-09-21T08:45:58.735Z,5.20
2022-09-21T08:48:34.392Z,4.43
2022-09-21T08:51:06.091Z,6.23
2022-09-21T08:53:35.471Z,4.20
2022-09-21T08:56:04.590Z,4.07
2022-09-21T08:58:32.944Z,4.60
2022-09-21T09:01:09.009Z,7.60
2022-09-21T09:03:48.362Z,3.93
2022-09-21T09:06:24.691Z,7.60
2022-09-21T09:09:03.665Z,5.90
2022-09-21T09:11:38.461Z,4.00
2022-09-21T09:14:15.222Z,4.00
2022-09-21T09:16:48.483Z,3.70
2022-09-21T09:19:21.134Z,3.83
2022-09-21T09:21:48.574Z,4.63
2022-09-21T09:24:17.359Z,6.30
2022-09-21T09:26:49.746Z,6.80
2022-09-21T09:29:19.482Z,3.73
2022-09-21T09:31:47.325Z,13.17
2022-09-21T09:34:17.127Z,4.67
2022-09-21T09:36:58.457Z,7.00
2022-09-21T09:39:27.649Z,18.00
2022-09-21T09:42:01.591Z,4.37
2022-09-21T09:44:38.804Z,2.20
2022-09-21T09:47:10.811Z,2.80
2022-09-21T09:49:41.384Z,5.43
2022-09-21T09:52:09.951Z,2.20
2022-09-21T09:54:37.424Z,8.80
2022-09-21T09:57:07.227Z,2.53
2022-09-21T09:59:36.949Z,2.80
2022-09-21T10:02:06.376Z,2.70
2022-09-21T10:04:34.708Z,2.50
2022-09-21T10:07:02.299Z,2.40
2022-09-21T10:09:30.954Z,1.90
2022-09-21T10:12:00.341Z,2.50
2022-09-21T10:14:32.435Z,1.90
2022-09-21T10:17:02.649Z,1.60
2022-09-21T10:19:30.552Z,1.70
2022-09-21T10:21:58.747Z,1.43
2022-09-21T10:24:27.601Z,1.40
2022-09-21T10:26:56.456Z,1.80
2022-09-21T10:29:32.853Z,1.00
2022-09-21T10:32:01.631Z,0.90
2022-09-21T10:34:30.295Z,2.07
2022-09-21T10:36:58.806Z,1.20
2022-09-21T10:39:27.774Z,1.00
2022-09-21T10:42:05.821Z,1.40
2022-09-21T10:44:39.578Z,1.00
2022-09-21T10:47:17.077Z,1.27
2022-09-21T10:49:45.450Z,1.10
2022-09-21T10:52:12.899Z,1.10
2022-09-21T10:54:40.797Z,1.20
2022-09-21T10:57:10.098Z,0.93
2022-09-21T10:59:38.888Z,1.03
2022-09-21T11:02:25.501Z,1.00
2022-09-21T11:04:54.723Z,1.03
2022-09-21T11:07:24.508Z,1.10
2022-09-21T11:09:55.516Z,1.00
2022-09-21T11:12:37.648Z,1.00
2022-09-21T11:15:12.743Z,1.10
2022-09-21T11:17:42.868Z,0.90
2022-09-21T11:20:18.627Z,1.03
2022-09-21T11:22:57.333Z,1.00
2022-09-21T11:25:31.071Z,0.90
2022-09-21T11:28:01.465Z,1.20
2022-09-21T11:30:33.399Z,1.00
2022-09-21T11:33:09.661Z,1.13
2022-09-21T11:35:42.271Z,1.10
2022-09-21T11:38:13.265Z,1.13
2022-09-21T11:40:49.855Z,1.40
2022-09-21T11:43:24.841Z,0.90
2022-09-21T11:46:01.364Z,1.00
2022-09-21T11:48:35.625Z,1.10
2022-09-21T11:51:09.475Z,1.20
2022-09-21T11:53:48.724Z,1.40
2022-09-21T11:56:31.445Z,1.00
2022-09-21T11:59:07.079Z,1.20
2022-09-21T12:01:49.408Z,0.90
2022-09-21T12:04:22.070Z,1.40
2022-09-21T12:06:56.195Z,1.20
2022-09-21T12:09:43.820Z,0.97
2022-09-21T12:12:13.503Z,1.33
2022-09-21T12:14:44.102Z,0.90
2022-09-21T12:17:17.488Z,1.03
2022-09-21T12:19:46.960Z,1.20
2022-09-21T12:22:17.624Z,1.10
2022-09-21T12:24:47.402Z,1.20
2022-09-21T12:27:30.442Z,1.00
2022-09-21T12:30:00.936Z,1.10
2022-09-21T12:32:37.181Z,1.00
2022-09-21T12:35:06.483Z,0.97
2022-09-21T12:37:36.675Z,1.10
2022-09-21T12:40:06.827Z,1.00
2022-09-21T12:42:37.436Z,0.80
2022-09-21T12:45:07.435Z,1.10
2022-09-21T12:47:42.454Z,1.10
2022-09-21T12:50:17.344Z,1.00
2022-09-21T12:52:44.863Z,1.10
2022-09-21T12:55:21.749Z,1.00
2022-09-21T12:58:14.237Z,1.10
2022-09-21T13:00:43.417Z,0.90
2022-09-21T13:03:16.188Z,1.10
2022-09-21T13:05:47.488Z,0.83
2022-09-21T13:08:16.176Z,0.80
2022-09-21T13:10:49.191Z,1.20
2022-09-21T13:13:27.835Z,0.97
2022-09-21T13:15:55.523Z,1.00
2022-09-21T13:18:26.008Z,0.80
2022-09-21T13:20:54.422Z,1.10
2022-09-21T13:23:24.564Z,0.90
2022-09-21T13:26:00.991Z,0.80
2022-09-21T13:28:42.347Z,0.70
2022-09-21T13:31:40.505Z,1.97
2022-09-21T13:34:21.747Z,0.80
2022-09-21T13:37:04.022Z,0.80
2022-09-21T13:39:31.413Z,0.90
2022-09-21T13:42:03.264Z,0.80
2022-09-21T13:44:41.785Z,1.07
2022-09-21T13:47:10.107Z,1.00
2022-09-21T13:49:44.595Z,0.90
2022-09-21T13:52:29.933Z,0.90
2022-09-21T13:54:59.584Z,1.00
2022-09-21T13:57:30.207Z,1.10
2022-09-21T14:00:06.055Z,1.20
2022-09-21T14:02:35.259Z,1.60
2022-09-21T14:05:07.991Z,1.90
2022-09-21T14:07:36.391Z,1.10
2022-09-21T14:10:05.675Z,0.80
2022-09-21T14:12:35.473Z,1.10
2022-09-21T14:15:12.700Z,1.00
2022-09-21T14:17:41.094Z,0.93
2022-09-21T14:20:29.333Z,0.70
2022-09-21T14:23:27.240Z,1.10
2022-09-21T14:25:56.421Z,0.93
2022-09-21T14:28:35.071Z,1.40
2022-09-21T14:31:04.008Z,2.20
2022-09-21T14:33:34.971Z,1.33
2022-09-21T14:36:07.317Z,1.13
2022-09-21T14:38:42.141Z,2.00
2022-09-21T14:41:13.876Z,2.33
2022-09-21T14:43:44.802Z,1.67
2022-09-21T14:46:25.682Z,1.70
2022-09-21T14:48:59.718Z,1.97
2022-09-21T14:51:38.217Z,1.90
2022-09-21T14:54:17.404Z,1.67
2022-09-21T14:56:51.707Z,1.37
2022-09-21T14:59:23.127Z,4.43
2022-09-21T15:01:58.138Z,3.70
2022-09-21T15:04:33.172Z,1.40
2022-09-21T15:07:24.350Z,3.67
2022-09-21T15:10:23.999Z,2.00
2022-09-21T15:12:54.931Z,1.57
2022-09-21T15:15:33.100Z,1.67
2022-09-21T15:18:01.884Z,1.30
2022-09-21T15:20:30.440Z,1.33
2022-09-21T15:22:58.547Z,1.00
2022-09-21T15:25:28.703Z,2.03
2022-09-21T15:27:56.215Z,3.00
2022-09-21T15:30:26.355Z,2.90
2022-09-21T15:32:55.009Z,2.10
2022-09-21T15:35:23.351Z,1.40
2022-09-21T15:37:51.690Z,1.40
2022-09-21T15:40:21.578Z,1.20
2022-09-21T15:43:06.456Z,1.60
2022-09-21T15:45:37.340Z,1.60
2022-09-21T15:48:07.587Z,1.23
2022-09-21T15:50:35.319Z,1.10
2022-09-21T15:53:10.117Z,1.10
2022-09-21T15:55:37.670Z,1.33
2022-09-21T15:58:13.912Z,0.90
2022-09-21T16:00:41.335Z,0.90
2022-09-21T16:03:17.489Z,0.97
2022-09-21T16:05:46.204Z,0.80
2022-09-21T16:08:27.889Z,1.00
2022-09-21T16:11:11.060Z,1.00
2022-09-21T16:13:57.558Z,1.17
2022-09-21T16:16:24.962Z,1.20
2022-09-21T16:18:55.542Z,1.10
2022-09-21T16:21:24.484Z,1.10
2022-09-21T16:23:54.657Z,1.30
2022-09-21T16:26:23.343Z,1.20
2022-09-21T16:28:57.314Z,1.17
2022-09-21T16:31:32.374Z,1.20
2022-09-21T16:34:01.545Z,1.57
2022-09-21T16:36:35.087Z,1.30
2022-09-21T16:39:06.063Z,1.33
2022-09-21T16:41:36.028Z,1.50
2022-09-21T16:44:05.485Z,1.17
2022-09-21T16:46:33.162Z,1.30
2022-09-21T16:49:00.827Z,1.33
2022-09-21T16:51:28.793Z,1.20
2022-09-21T16:53:56.664Z,1.40
2022-09-21T16:56:24.129Z,1.30
2022-09-21T16:58:51.498Z,1.67
2022-09-21T17:01:20.682Z,1.80
2022-09-21T17:03:48.578Z,1.83
2022-09-21T17:06:16.731Z,1.40
2022-09-21T17:08:44.505Z,1.60
2022-09-21T17:11:11.875Z,1.53
2022-09-21T17:13:39.469Z,1.77
2022-09-21T17:16:08.557Z,2.03
2022-09-21T17:18:37.352Z,1.60
2022-09-21T17:21:05.276Z,1.20
2022-09-21T17:23:32.881Z,1.10
2022-09-21T17:26:00.310Z,1.37
2022-09-21T17:28:27.947Z,1.10
2022-09-21T17:30:55.627Z,1.10
2022-09-21T17:33:23.887Z,1.03
2022-09-21T17:35:53.095Z,1.07
2022-09-21T17:38:20.726Z,0.87
2022-09-21T17:40:48.380Z,1.30
2022-09-21T17:43:21.442Z,1.10
2022-09-21T17:45:52.575Z,1.00
2022-09-21T17:48:20.836Z,1.10
2022-09-21T17:50:48.427Z,1.20
2022-09-21T17:53:36.993Z,1.60
2022-09-21T17:56:12.584Z,2.33
2022-09-21T17:58:42.547Z,1.57
2022-09-21T18:01:14.958Z,1.40
2022-09-21T18:03:44.592Z,1.50
2022-09-21T18:06:12.617Z,1.40
2022-09-21T18:08:41.617Z,1.40
2022-09-21T18:11:15.304Z,1.90
2022-09-21T18:13:48.085Z,1.60
2022-09-21T18:16:22.768Z,1.50
2022-09-21T18:18:54.777Z,1.63
2022-09-21T18:21:23.036Z,1.50
2022-09-21T18:24:00.631Z,7.20
2022-09-21T18:26:28.220Z,32.73
2022-09-21T18:28:58.290Z,18.80
2022-09-21T18:31:35.880Z,11.37
2022-09-21T18:34:08.511Z,10.83
2022-09-21T18:36:42.357Z,12.20
2022-09-21T18:39:19.388Z,10.40
2022-09-21T18:41:50.355Z,10.47
2022-09-21T18:44:22.582Z,13.30
2022-09-21T18:46:54.034Z,13.30
2022-09-21T18:49:30.020Z,11.90
2022-09-21T18:51:59.362Z,8.40
2022-09-21T18:54:28.685Z,8.30
2022-09-21T18:56:56.507Z,8.80
2022-09-21T18:59:26.470Z,7.30
2022-09-21T19:01:56.275Z,5.80
2022-09-21T19:04:24.070Z,5.63
2022-09-21T19:06:54.198Z,5.13
2022-09-21T19:09:43.311Z,5.27
2022-09-21T19:12:21.305Z,4.80
2022-09-21T19:14:56.208Z,5.90
2022-09-21T19:17:33.567Z,4.47
2022-09-21T19:20:06.345Z,3.60
2022-09-21T19:22:40.769Z,3.67
2022-09-21T19:25:15.122Z,4.20
2022-09-21T19:27:44.651Z,4.43
2022-09-21T19:30:12.749Z,5.00
2022-09-21T19:32:43.740Z,6.77
2022-09-21T19:35:22.181Z,6.73
2022-09-21T19:37:50.255Z,4.77
2022-09-21T19:40:20.126Z,3.87
2022-09-21T19:43:00.022Z,3.93
2022-09-21T19:45:29.113Z,3.80
2022-09-21T19:47:59.842Z,3.77
2022-09-21T19:50:30.968Z,3.60
2022-09-21T19:53:19.198Z,3.67
2022-09-21T19:56:05.924Z,3.63
2022-09-21T19:58:51.111Z,3.20
2022-09-21T20:01:19.760Z,3.20
2022-09-21T20:03:48.557Z,3.17
2022-09-21T20:06:19.536Z,3.00
2022-09-21T20:08:51.122Z,3.27
2022-09-21T20:11:21.870Z,2.90
2022-09-21T20:13:54.358Z,2.90
2022-09-21T20:16:27.406Z,2.80
2022-09-21T20:18:58.939Z,2.80
2022-09-21T20:21:31.795Z,2.70
2022-09-21T20:24:02.140Z,2.77
2022-09-21T20:26:31.114Z,2.80
2022-09-21T20:28:59.017Z,2.80
2022-09-21T20:31:26.892Z,2.83
2022-09-21T20:33:54.349Z,2.53
2022-09-21T20:36:22.690Z,2.20
2022-09-21T20:38:50.084Z,2.30
2022-09-21T20:41:18.919Z,2.60
2022-09-21T20:43:47.630Z,1.90
2022-09-21T20:46:15.074Z,2.30
2022-09-21T20:48:43.429Z,2.40
2022-09-21T20:51:11.241Z,2.60
2022-09-21T20:53:40.316Z,2.60
2022-09-21T20:56:07.711Z,2.47
2022-09-21T20:58:35.364Z,2.40
2022-09-21T21:01:08.394Z,2.37
2022-09-21T21:03:35.936Z,2.47
2022-09-21T21:06:10.467Z,2.00
2022-09-21T21:08:38.003Z,3.37
2022-09-21T21:11:05.545Z,4.23
2022-09-21T21:13:33.263Z,6.03
2022-09-21T21:16:00.884Z,7.07
2022-09-21T21:18:29.658Z,7.20
2022-09-21T21:20:57.023Z,7.70
2022-09-21T21:23:24.503Z,6.50
2022-09-21T21:25:51.963Z,7.10
2022-09-21T21:28:19.407Z,7.20
2022-09-21T21:30:52.673Z,7.27
2022-09-21T21:33:20.060Z,5.50
2022-09-21T21:35:49.996Z,5.20
2022-09-21T21:38:17.427Z,3.90
2022-09-21T21:40:44.881Z,3.20
2022-09-21T21:43:12.324Z,2.90
2022-09-21T21:45:39.862Z,2.40
2022-09-21T21:48:07.279Z,2.10
2022-09-21T21:50:35.834Z,2.13
2022-09-21T21:53:04.626Z,2.30
2022-09-21T21:55:31.979Z,2.20
2022-09-21T21:57:59.450Z,2.20
2022-09-21T22:00:26.823Z,2.27
2022-09-21T22:02:56.428Z,2.40
2022-09-21T22:05:23.922Z,2.10
2022-09-21T22:07:51.337Z,2.20
2022-09-21T22:10:20.079Z,2.23
2022-09-21T22:12:47.455Z,2.23
2022-09-21T22:15:14.894Z,2.30
2022-09-21T22:17:42.314Z,2.80
2022-09-21T22:20:10.223Z,3.17
2022-09-21T22:22:37.608Z,2.33
2022-09-21T22:25:05.312Z,2.70
2022-09-21T22:27:34.051Z,3.10
2022-09-21T22:30:01.432Z,2.80
2022-09-21T22:32:29.861Z,2.60
2022-09-21T22:34:57.524Z,2.63
2022-09-21T22:37:25.274Z,2.50
2022-09-21T22:39:53.070Z,2.90
2022-09-21T22:42:20.459Z,2.90
2022-09-21T22:44:49.176Z,2.97
2022-09-21T22:47:16.578Z,2.90
2022-09-21T22:49:43.989Z,2.60
2022-09-21T22:52:11.378Z,2.40
2022-09-21T22:54:38.786Z,2.00
2022-09-21T22:57:06.422Z,2.50
2022-09-21T22:59:33.831Z,2.80
2022-09-21T23:02:02.627Z,2.83
2022-09-21T23:04:30.089Z,2.93
2022-09-21T23:06:57.520Z,2.60
2022-09-21T23:09:24.911Z,2.97
2022-09-21T23:11:53.715Z,2.70
2022-09-21T23:14:21.630Z,3.00
2022-09-21T23:16:49.191Z,2.70
2022-09-21T23:19:18.027Z,2.63
2022-09-21T23:21:46.298Z,2.67
2022-09-21T23:24:13.827Z,2.20
2022-09-21T23:26:41.287Z,2.03
2022-09-21T23:29:12.827Z,2.40
2022-09-21T23:31:44.727Z,2.20
2022-09-21T23:34:13.475Z,2.60
2022-09-21T23:36:42.614Z,2.20
2022-09-21T23:39:11.199Z,1.70
2022-09-21T23:41:38.616Z,2.10
2022-09-21T23:44:06.440Z,2.23
2022-09-21T23:46:34.799Z,2.00
2022-09-21T23:49:02.520Z,1.87
2022-09-21T23:51:30.340Z,1.87
2022-09-21T23:53:59.528Z,2.70
2022-09-21T23:56:27.101Z,2.20
2022-09-21T23:58:54.603Z,2.10
